NEODyS-2

Near Earth Objects - Dynamic Site
NEODyS ∴ Observatories ∴ Site 691 ∴ Obs & residuals
Contact »
691  ▹ 
OBSERVATIONS AND RESIDUALS

691-Steward Observatory, Kitt Peak-Spacewatch

Detections | Residuals | Detections & Residuals

[1-200] [201-400] [401-600] [601-800] [801-1000] [1001-1200] [1201-1400] [1401-1600] [1601-1800] [1801-2000] [2001-2200] [2201-2400] [2401-2600] [2601-2800] [2801-3000] [3001-3200] [3201-3400] [3401-3600] [3601-3800] [3801-4000] [4001-4200] [4201-4400] [4401-4600] [4601-4800] [4801-5000] [5001-5200] [5201-5400] [5401-5600] [5601-5800] [5801-6000] [6001-6200] [6201-6400] [6401-6600] [6601-6800] [6801-7000] [7001-7200] [7201-7400] [7401-7600] [7601-7800] [7801-8000] [8001-8200] [8201-8400] [8401-8600] [8601-8800] [8801-9000] [9001-9200] [9201-9400] [9401-9600] [9601-9800] [9801-10000] [10001-10200] [10201-10400] [10401-10600] [10601-10800] [10801-11000] [11001-11200] [11201-11400] [11401-11600] [11601-11800] [11801-12000] [12001-12200] [12201-12400] [12401-12600] [12601-12800] [12801-13000] [13001-13200] [13201-13400] [13401-13600] [13601-13800] [13801-14000] [14001-14200] [14201-14400] [14401-14600] [14601-14800] [14801-15000] [15001-15200] [15201-15400] [15401-15600] [15601-15800] [15801-16000] [16001-16200] [16201-16400] [16401-16600] [16601-16800] [16801-17000] [17001-17200] [17201-17400] [17401-17600] [17601-17800] [17801-18000] [18001-18200] [18201-18400] [18401-18600] [18601-18800] [18801-19000] [19001-19200] [19201-19400] [19401-19600] [19601-19800] [19801-20000] [20001-20200] [20201-20400] [20401-20600] [20601-20800] [20801-21000] [21001-21200] [21201-21400] [21401-21600] [21601-21800] [21801-22000] [22001-22200] [22201-22400] [22401-22600] [22601-22800] [22801-23000] [23001-23200] [23201-23400] [23401-23600] [23601-23800] [23801-24000] [24001-24200] [24201-24400] [24401-24600] [24601-24800] [24801-25000] [25001-25200] [25201-25400] [25401-25600] [25601-25800] [25801-26000] [26001-26200] [26201-26400] [26401-26600] [26601-26800] [26801-27000] [27001-27200] [27201-27400] [27401-27600] [27601-27800] [27801-28000] [28001-28200] [28201-28400] [28401-28600] [28601-28800] [28801-29000] [29001-29200] [29201-29400] [29401-29600] [29601-29800] [29801-30000] [30001-30200] [30201-30400] [30401-30600] [30601-30800] [30801-31000] [31001-31200] [31201-31400] [31401-31600] [31601-31800] [31801-32000] [32001-32200] [32201-32400] [32401-32600] [32601-32800] [32801-33000] [33001-33200] [33201-33400] [33401-33600] [33601-33800] [33801-34000] [34001-34200] [34201-34400] [34401-34600] [34601-34800] [34801-35000] [35001-35200] [35201-35400] [35401-35600] [35601-35800] [35801-36000] [36001-36200] [36201-36400] [36401-36600] [36601-36800] [36801-37000] [37001-37200] [37201-37400] [37401-37600] [37601-37800] [37801-38000] [38001-38200] [38201-38400] [38401-38600] [38601-38800] [38801-39000] [39001-39200] [39201-39400] [39401-39600] [39601-39800] [39801-40000] [40001-40200] [40201-40400] [40401-40600] [40601-40800] [40801-41000] [41001-41200] [41201-41400] [41401-41600] [41601-41800] [41801-42000] [42001-42200] [42201-42400] [42401-42600] [42601-42800] [42801-43000] [43001-43200] [43201-43400] [43401-43600] [43601-43800] [43801-44000] [44001-44200] [44201-44400] [44401-44600] [44601-44800] [44801-45000] [45001-45200] [45201-45400] [45401-45600] [45601-45800] [45801-46000] [46001-46200] [46201-46400] [46401-46600] [46601-46800] [46801-47000] [47001-47200] [47201-47400] [47401-47600] [47601-47800] [47801-48000] [48001-48200] [48201-48400] [48401-48600] [48601-48800] [48801-49000] [49001-49200] [49201-49400] [49401-49600] [49601-49800] [49801-50000] [50001-50200] [50201-50388]

Designation T Tech N Date Right Ascension Declination Apparent Magnitude Star Catalog Site code χ Used A Used M
yr-mo-day precision hr:min:sec precision rms F bias residual deg min sec precision rms F bias residual mag/col rms residual
2011AM24 O C 2015-06-12.26450 1.000E-05 14:22:45.420 1.500E-01 0.500 F -0.007 0.031 +23° 58' 20.00" 1.000E-01 0.500 F 0.225 0.583 19.7 V 0.70 -0.05 o 691 1.17 Yes Yes
2011AM24 O C 2015-06-12.26958 1.000E-05 14:22:45.040 1.500E-01 0.500 F -0.007 -0.119 +23° 58' 12.70" 1.000E-01 0.500 F 0.225 -0.018 19.8 V 0.70 0.05 o 691 0.24 Yes Yes
2015JH2 O C H 2015-06-12.27367 1.000E-05 17:34:58.240 1.500E-01 0.500 F -0.012 -0.125 +14° 09' 49.10" 1.000E-01 0.500 F 0.212 -0.442 19.7 V 0.70 0.07 o 691 0.93 Yes Yes
2015JH2 O C H 2015-06-12.27875 1.000E-05 17:34:59.350 1.500E-01 0.500 F -0.012 -0.113 +14° 09' 57.70" 1.000E-01 0.500 F 0.212 -0.134 19.7 V 0.70 0.07 o 691 0.35 Yes Yes
2015JH2 O C H 2015-06-12.28384 1.000E-05 17:35:00.460 1.500E-01 0.500 F -0.012 -0.122 +14° 10' 06.00" 1.000E-01 0.500 F 0.212 -0.128 19.9 V 0.70 0.27 o 691 0.36 Yes Yes
2009JO2 O C 2015-06-12.36807 1.000E-05 15:36:14.440 1.500E-01 0.500 F 0.128 -0.072 +31° 23' 27.70" 1.000E-01 0.500 F 0.218 -0.041 19.6 V 0.70 -0.33 o 691 0.17 Yes Yes
2009JO2 O C 2015-06-12.37314 1.000E-05 15:36:13.660 1.500E-01 0.500 F 0.128 -0.010 +31° 23' 24.20" 1.000E-01 0.500 F 0.218 -0.124 19.6 V 0.70 -0.33 o 691 0.25 Yes Yes
2009JO2 O C 2015-06-12.37846 1.000E-05 15:36:12.840 1.500E-01 0.500 F 0.128 0.019 +31° 23' 20.60" 1.000E-01 0.500 F 0.218 -0.131 19.7 V 0.70 -0.23 o 691 0.27 Yes Yes
2015KN122 O C 2015-06-16.24283 1.000E-05 14:13:56.460 1.500E-01 0.500 F 0.298 -0.517 +04° 01' 33.30" 1.000E-01 0.500 F 0.237 -0.154 21.1 V 0.70 -0.42 o 691 1.10 Yes Yes
2015KN122 O C 2015-06-16.24791 1.000E-05 14:13:56.560 1.500E-01 0.500 F 0.298 -0.585 +04° 01' 19.00" 1.000E-01 0.500 F 0.237 -0.464 20.9 V 0.70 -0.62 o 691 1.52 Yes Yes
2015KN122 O C 2015-06-16.25322 1.000E-05 14:13:56.660 1.500E-01 0.500 F 0.298 -0.731 +04° 01' 04.80" 1.000E-01 0.500 F 0.237 -0.044 20.7 V 0.70 -0.82 o 691 1.49 Yes Yes
2011UW158 O C H 2015-06-17.17171 1.000E-05 12:36:49.580 1.500E-01 0.500 F 0.467 -0.335 -26° 04' 20.60" 1.000E-01 0.500 F 0.338 0.064 17.6 V 0.70 0.21 o 691 0.68 Yes Yes
2011UW158 O C H 2015-06-17.17632 1.000E-05 12:36:49.350 1.500E-01 0.500 F 0.467 -0.208 -26° 04' 15.00" 1.000E-01 0.500 F 0.338 0.013 17.6 V 0.70 0.21 o 691 0.42 Yes Yes
2011UW158 O C H 2015-06-17.18094 1.000E-05 12:36:49.120 1.500E-01 0.500 F 0.467 -0.101 -26° 04' 09.30" 1.000E-01 0.500 F 0.338 0.025 18.0 V 0.70 0.61 o 691 0.21 Yes Yes
2012MP O C H 2015-06-17.19501 1.000E-05 13:59:04.750 1.500E-01 0.500 F 0.288 -0.022 -27° 10' 00.00" 1.000E-01 0.500 F 0.252 0.303 20.8 V 0.70 0.34 o 691 0.63 Yes Yes
2012MP O C H 2015-06-17.19756 1.000E-05 13:59:04.990 1.500E-01 0.500 F 0.288 -0.175 -27° 09' 53.40" 1.000E-01 0.500 F 0.252 -0.072 20.9 V 0.70 0.44 o 691 0.43 Yes Yes
2015FU332 O C H 2015-06-17.23223 1.000E-05 14:43:40.770 1.500E-01 0.500 F 0.075 -0.335 +12° 49' 42.60" 1.000E-01 0.500 F 0.147 -0.230 20.7 V 0.70 0.19 o 691 0.82 Yes Yes
2015FU332 O C H 2015-06-17.23501 1.000E-05 14:43:40.690 1.500E-01 0.500 F 0.075 -0.124 +12° 49' 37.70" 1.000E-01 0.500 F 0.147 -0.554 20.8 V 0.70 0.29 o 691 1.15 Yes Yes
2015FU332 O C H 2015-06-17.23800 1.000E-05 14:43:40.600 1.500E-01 0.500 F 0.075 0.043 +12° 49' 33.30" 1.000E-01 0.500 F 0.147 -0.033 20.8 V 0.70 0.29 o 691 0.11 Yes Yes
2015KR154 O C H 2015-06-17.25414 1.000E-05 14:56:42.220 1.500E-01 0.500 F 0.175 -0.435 +01° 30' 46.40" 1.000E-01 0.500 F 0.192 -0.097 19.7 V 0.70 -0.02 o 691 0.90 Yes Yes
2015KR154 O C H 2015-06-17.25622 1.000E-05 14:56:42.360 1.500E-01 0.500 F 0.175 -0.075 +01° 30' 31.30" 1.000E-01 0.500 F 0.192 -0.326 19.7 V 0.70 -0.02 o 691 0.68 Yes Yes
2015KR154 O C H 2015-06-17.25829 1.000E-05 14:56:42.470 1.500E-01 0.500 F 0.175 -0.158 +01° 30' 16.30" 1.000E-01 0.500 F 0.192 -0.525 19.6 V 0.70 -0.12 o 691 1.11 Yes Yes
2015KK122 O C 2015-06-19.26419 1.000E-05 16:26:29.010 1.500E-01 0.500 F 0.092 -0.299 -03° 07' 06.10" 1.000E-01 0.500 F 0.350 0.055 20.8 V 0.70 0.04 o 691 0.61 Yes Yes
2015KK122 O C 2015-06-19.27020 1.000E-05 16:26:29.120 1.500E-01 0.500 F 0.092 -0.243 -03° 06' 56.30" 1.000E-01 0.500 F 0.350 0.205 20.8 V 0.70 0.04 o 691 0.64 Yes Yes
2015KK122 O C 2015-06-19.27598 1.000E-05 16:26:29.210 1.500E-01 0.500 F 0.092 -0.432 -03° 06' 47.00" 1.000E-01 0.500 F 0.350 0.223 20.5 V 0.70 -0.26 o 691 0.98 Yes Yes
2002HU11 O C 2015-06-20.21989 1.000E-05 13:20:55.240 1.500E-01 0.500 F 0.215 -0.408 +26° 09' 52.40" 1.000E-01 0.500 F 0.259 -0.051 19.7 V 0.70 -0.07 o 691 0.83 Yes Yes
2006GU O C 2015-06-20.21989 1.000E-05 13:20:18.280 1.500E-01 0.500 F 0.176 -1.107 +26° 58' 23.80" 1.000E-01 0.500 F 0.221 -0.267 19.5 V 0.70 -0.01 o 691 2.28 Yes Yes
2002HU11 O C 2015-06-20.22497 1.000E-05 13:20:55.420 1.500E-01 0.500 F 0.215 -0.332 +26° 09' 44.60" 1.000E-01 0.500 F 0.259 0.355 19.6 V 0.70 -0.17 o 691 0.98 Yes Yes
2006GU O C 2015-06-20.22497 1.000E-05 13:20:18.590 1.500E-01 0.500 F 0.176 0.088 +26° 58' 20.30" 1.000E-01 0.500 F 0.221 -0.004 19.7 V 0.70 0.19 o 691 0.18 Yes Yes
2002HU11 O C 2015-06-20.23029 1.000E-05 13:20:55.610 1.500E-01 0.500 F 0.215 -0.240 +26° 09' 35.60" 1.000E-01 0.500 F 0.259 -0.046 19.7 V 0.70 -0.07 o 691 0.49 Yes Yes
2006GU O C 2015-06-20.23029 1.000E-05 13:20:18.800 1.500E-01 0.500 F 0.176 -0.200 +26° 58' 16.10" 1.000E-01 0.500 F 0.221 -0.259 19.6 V 0.70 0.09 o 691 0.66 Yes Yes
2015MA54 O C H 2015-06-20.30967 1.000E-05 15:13:25.090 1.500E-01 0.500 F 0.152 -0.005 +24° 45' 42.00" 1.000E-01 0.500 F 0.200 0.306 20.1 V 0.70 -0.07 o 691 0.67 Yes Yes
2015MA54 O C H 2015-06-20.31405 1.000E-05 15:13:25.540 1.500E-01 0.500 F 0.152 0.512 +24° 47' 01.40" 1.000E-01 0.500 F 0.200 0.285 20.7 V 0.70 0.53 o 691 1.24 Yes Yes
2015MA54 O C H 2015-06-20.31867 1.000E-05 15:13:25.940 1.500E-01 0.500 F 0.152 -0.091 +24° 48' 26.00" 1.000E-01 0.500 F 0.200 1.063 19.9 V 0.70 -0.27 o 691 2.32 Yes Yes
2015LG14 O C H 2015-06-20.33664 1.000E-05 15:52:49.750 1.500E-01 0.500 F 0.214 0.117 -08° 12' 32.70" 1.000E-01 0.500 F 0.139 -0.724 o 691 1.50 Yes No
2015LG14 O C H 2015-06-20.34149 1.000E-05 15:52:50.860 1.500E-01 0.500 F 0.214 -0.122 -08° 12' 11.40" 1.000E-01 0.500 F 0.139 0.050 20.5 V 0.70 0.22 o 691 0.27 Yes Yes
2015LG14 O C H 2015-06-20.34634 1.000E-05 15:52:51.990 1.500E-01 0.500 F 0.214 -0.097 -08° 11' 51.00" 1.000E-01 0.500 F 0.139 -0.077 20.4 V 0.70 0.12 o 691 0.25 Yes Yes
2015LK21 O C 2015-06-20.36749 1.000E-05 16:17:02.860 1.500E-01 0.500 F 0.150 -0.241 +17° 09' 17.30" 1.000E-01 0.500 F 0.214 -0.268 20.9 V 0.70 -0.79 o 691 0.72 Yes Yes
2015LK21 O C 2015-06-20.37466 1.000E-05 16:17:02.390 1.500E-01 0.500 F 0.150 -0.101 +17° 09' 17.10" 1.000E-01 0.500 F 0.214 -0.042 21.4 V 0.70 -0.29 o 691 0.22 Yes Yes
2015LK21 O C 2015-06-20.38205 1.000E-05 16:17:01.890 1.500E-01 0.500 F 0.150 -0.188 +17° 09' 16.70" 1.000E-01 0.500 F 0.214 0.001 21.3 V 0.70 -0.39 o 691 0.38 Yes Yes
2015HY116 O C H 2015-06-21.17811 1.000E-05 13:19:32.790 1.500E-01 0.500 F 0.197 0.542 +07° 06' 43.20" 1.000E-01 0.500 F 0.179 0.719 21.3 V 0.70 -0.15 o 691 1.81 Yes Yes
2015HY116 O C H 2015-06-21.18620 1.000E-05 13:19:32.640 1.500E-01 0.500 F 0.197 0.523 +07° 06' 38.20" 1.000E-01 0.500 F 0.179 -0.380 21.2 V 0.70 -0.25 o 691 1.30 Yes Yes
2015MV53 O C H 2015-06-21.20820 1.000E-05 15:10:31.750 1.500E-01 0.500 F 0.263 0.135 -06° 27' 27.00" 1.000E-01 0.500 F 0.152 -0.503 o 691 1.05 Yes No
2015MV53 O C H 2015-06-21.21536 1.000E-05 15:10:32.220 1.500E-01 0.500 F 0.263 0.015 -06° 27' 23.30" 1.000E-01 0.500 F 0.152 -0.780 o 691 1.57 Yes No
2015MA54 O C H 2015-06-21.22714 1.000E-05 15:16:47.290 1.500E-01 0.500 F 0.085 -0.031 +30° 11' 49.10" 1.000E-01 0.500 F 0.208 -0.369 19.9 V 0.70 -0.08 o 691 0.77 Yes Yes
2015MA54 O C H 2015-06-21.23014 1.000E-05 15:16:47.670 1.500E-01 0.500 F 0.085 -0.427 +30° 13' 03.20" 1.000E-01 0.500 F 0.208 0.738 20.3 V 0.70 0.32 o 691 1.78 Yes Yes
2015MA54 O C H 2015-06-21.23314 1.000E-05 15:16:48.140 1.500E-01 0.500 F 0.085 0.319 +30° 14' 15.60" 1.000E-01 0.500 F 0.208 0.121 20.2 V 0.70 0.22 o 691 0.71 Yes Yes
2015LG14 O C H 2015-06-21.26662 1.000E-05 15:56:41.810 1.500E-01 0.500 F 0.090 0.172 -07° 08' 47.60" 1.000E-01 0.500 F 0.181 -0.371 o 691 0.84 Yes No
2015LG14 O C H 2015-06-21.27078 1.000E-05 15:56:42.730 1.500E-01 0.500 F 0.090 0.157 -07° 08' 31.10" 1.000E-01 0.500 F 0.181 -0.685 o 691 1.44 Yes No
2015LG14 O C H 2015-06-21.27470 1.000E-05 15:56:43.610 1.500E-01 0.500 F 0.090 0.330 -07° 08' 14.90" 1.000E-01 0.500 F 0.181 -0.331 o 691 0.96 Yes No
2015LK21 O C H 2015-06-21.32724 1.000E-05 16:16:00.450 1.500E-01 0.500 F 0.150 0.047 +17° 08' 15.50" 1.000E-01 0.500 F 0.214 -0.719 21.5 V 0.70 -0.19 o 691 1.45 Yes Yes
2015LK21 O C H 2015-06-21.33325 1.000E-05 16:16:00.020 1.500E-01 0.500 F 0.150 -0.393 +17° 08' 15.30" 1.000E-01 0.500 F 0.214 -0.441 21.7 V 0.70 0.01 o 691 1.19 Yes Yes
2015LK21 O C H 2015-06-21.33948 1.000E-05 16:15:59.580 1.500E-01 0.500 F 0.150 -0.771 +17° 08' 14.90" 1.000E-01 0.500 F 0.214 -0.342 21.7 V 0.70 0.01 o 691 1.69 Yes Yes
2015LG14 O C 2015-06-22.22704 1.000E-05 16:00:34.800 1.500E-01 0.500 F 0.127 -0.419 -06° 05' 40.50" 1.000E-01 0.500 F 0.237 0.039 20.1 V 0.70 -0.29 o 691 0.87 Yes Yes
2015LG14 O C 2015-06-22.23015 1.000E-05 16:00:35.500 1.500E-01 0.500 F 0.127 0.057 -06° 05' 29.60" 1.000E-01 0.500 F 0.237 -1.053 19.3 V 0.70 -1.09 o 691 2.17 Yes Yes
2015LG14 O C 2015-06-22.23327 1.000E-05 16:00:36.130 1.500E-01 0.500 F 0.127 -0.542 -06° 05' 16.20" 1.000E-01 0.500 F 0.237 0.316 20.1 V 0.70 -0.29 o 691 1.29 Yes Yes
2015MT96 O C H 2015-06-22.23634 1.000E-05 16:07:33.990 1.500E-01 0.500 F 0.272 -0.557 +03° 25' 19.60" 1.000E-01 0.500 F 0.127 -0.097 20.4 V 0.70 0.00 o 691 1.14 Yes Yes
2015MT96 O C H 2015-06-22.23992 1.000E-05 16:07:33.760 1.500E-01 0.500 F 0.272 0.524 +03° 25' 20.00" 1.000E-01 0.500 F 0.127 -0.751 o 691 1.84 Yes No
2015LK21 O C 2015-06-22.26521 1.000E-05 16:15:00.200 1.500E-01 0.500 F 0.150 -0.525 +17° 06' 56.00" 1.000E-01 0.500 F 0.214 -0.063 21.1 V 0.70 -0.59 o 691 1.06 Yes Yes
2015LK21 O C 2015-06-22.27029 1.000E-05 16:14:59.850 1.500E-01 0.500 F 0.150 -0.744 +17° 06' 55.50" 1.000E-01 0.500 F 0.214 -0.066 21.0 V 0.70 -0.69 o 691 1.50 Yes Yes
2015LK21 O C 2015-06-22.27560 1.000E-05 16:14:59.530 1.500E-01 0.500 F 0.150 -0.316 +17° 06' 54.80" 1.000E-01 0.500 F 0.214 -0.244 20.9 V 0.70 -0.79 o 691 0.80 Yes Yes
2011AM24 O C 2015-06-22.30752 1.000E-05 14:15:35.020 1.500E-01 0.500 F 0.128 -0.143 +19° 43' 40.30" 1.000E-01 0.500 F 0.268 -0.021 20.0 V 0.70 0.17 o 691 0.29 Yes Yes
2011AM24 O C 2015-06-22.31028 1.000E-05 14:15:34.930 1.500E-01 0.500 F 0.128 -0.169 +19° 43' 35.40" 1.000E-01 0.500 F 0.268 0.020 20.0 V 0.70 0.17 o 691 0.34 Yes Yes
2011AM24 O C 2015-06-22.31306 1.000E-05 14:15:34.840 1.500E-01 0.500 F 0.128 -0.195 +19° 43' 30.50" 1.000E-01 0.500 F 0.268 0.098 19.9 V 0.70 0.07 o 691 0.44 Yes Yes
2010GX62 O C H 2015-06-22.31689 1.000E-05 15:06:24.700 1.500E-01 0.500 F 0.049 0.212 +18° 56' 25.80" 1.000E-01 0.500 F 0.304 -0.831 o 691 1.72 Yes No
2010GX62 O C H 2015-06-22.32123 1.000E-05 15:06:25.150 1.500E-01 0.500 F 0.049 0.728 +18° 56' 20.70" 1.000E-01 0.500 F 0.304 -0.682 o 691 2.00 Yes No
2010GX62 O C H 2015-06-22.32580 1.000E-05 15:06:25.540 1.500E-01 0.500 F 0.049 0.075 +18° 56' 15.40" 1.000E-01 0.500 F 0.304 -0.452 o 691 0.92 Yes No
2009JO2 O C H 2015-06-22.32973 1.000E-05 15:16:46.920 1.500E-01 0.500 F 0.087 -0.300 +29° 07' 27.60" 1.000E-01 0.500 F 0.175 -0.129 21.0 V 0.70 0.70 o 691 0.65 Yes Yes
2009JO2 O C H 2015-06-22.33250 1.000E-05 15:16:46.630 1.500E-01 0.500 F 0.087 -0.767 +29° 07' 24.20" 1.000E-01 0.500 F 0.175 -0.770 20.8 V 0.70 0.50 o 691 2.18 Yes Yes
2009JO2 O C H 2015-06-22.33526 1.000E-05 15:16:46.440 1.500E-01 0.500 F 0.087 0.060 +29° 07' 20.90" 1.000E-01 0.500 F 0.175 -1.319 o 691 2.65 Yes No
2015MC54 O C H 2015-06-22.34492 1.000E-05 16:48:22.000 1.500E-01 0.500 F 0.222 1.555 +04° 27' 47.50" 1.000E-01 0.500 F 0.243 0.674 o 691 3.36 No No
2015MC54 O C H 2015-06-22.34931 1.000E-05 16:48:22.810 1.500E-01 0.500 F 0.222 1.039 +04° 28' 05.60" 1.000E-01 0.500 F 0.243 1.233 21.1 V 0.70 0.15 o 691 3.19 No Yes
2015MC54 O C H 2015-06-22.35393 1.000E-05 16:48:23.580 1.500E-01 0.500 F 0.222 -0.838 +04° 28' 21.50" 1.000E-01 0.500 F 0.243 -1.308 21.1 V 0.70 0.15 o 691 3.08 No Yes
2015NG13 O C 2015-07-08.20406 1.000E-05 15:29:58.680 1.500E-01 0.500 F 0.124 0.177 +03° 47' 36.90" 1.000E-01 0.500 F 0.083 0.186 20.3 V 0.70 -0.23 o 691 0.52 Yes Yes
2015NG13 O C 2015-07-08.20631 1.000E-05 15:29:58.580 1.500E-01 0.500 F 0.124 0.321 +03° 47' 39.80" 1.000E-01 0.500 F 0.083 0.214 20.2 V 0.70 -0.33 o 691 0.78 Yes Yes
2015NG13 O C 2015-07-08.20857 1.000E-05 15:29:58.430 1.500E-01 0.500 F 0.124 -0.285 +03° 47' 42.30" 1.000E-01 0.500 F 0.083 -0.167 20.9 V 0.70 0.37 o 691 0.67 Yes Yes
2001FC7 O C 2015-07-08.41807 1.000E-05 21:08:45.190 1.500E-01 0.500 F -0.093 -0.253 -19° 00' 19.00" 1.000E-01 0.500 F 0.099 0.164 19.1 V 0.70 1.56 o 691 0.60 Yes Yes
2001FC7 O C 2015-07-08.43698 1.000E-05 21:08:45.270 1.500E-01 0.500 F -0.093 -0.207 -19° 00' 28.40" 1.000E-01 0.500 F 0.099 0.054 17.7 V 0.70 0.16 o 691 0.43 Yes Yes
2001FC7 O C 2015-07-08.45589 1.000E-05 21:08:45.360 1.500E-01 0.500 F -0.093 -0.086 -19° 00' 37.50" 1.000E-01 0.500 F 0.099 0.146 17.7 V 0.70 0.16 o 691 0.34 Yes Yes
2011UW158 O C 2015-07-09.18567 1.000E-05 12:42:20.360 1.500E-01 0.500 F 0.352 -0.180 -09° 15' 47.30" 1.000E-01 0.500 F 0.129 0.184 o 691 0.52 Yes No
2011UW158 O C 2015-07-09.18723 1.000E-05 12:42:20.380 1.500E-01 0.500 F 0.352 -0.250 -09° 15' 35.50" 1.000E-01 0.500 F 0.129 0.106 o 691 0.55 Yes No
2011UW158 O C 2015-07-09.18879 1.000E-05 12:42:20.410 1.500E-01 0.500 F 0.352 -0.187 -09° 15' 23.60" 1.000E-01 0.500 F 0.129 0.123 o 691 0.45 Yes No
2015MX53 O C H 2015-07-09.19403 1.000E-05 15:05:54.000 1.500E-01 0.500 F 0.173 0.131 -20° 16' 40.50" 1.000E-01 0.500 F -0.178 0.208 20.9 V 0.70 -0.12 o 691 0.49 Yes Yes
2015MX53 O C H 2015-07-09.19745 1.000E-05 15:05:54.260 1.500E-01 0.500 F 0.173 0.359 -20° 16' 42.90" 1.000E-01 0.500 F -0.178 -0.169 21.1 V 0.70 0.08 o 691 0.80 Yes Yes
2015MX53 O C H 2015-07-09.20086 1.000E-05 15:05:54.490 1.500E-01 0.500 F 0.173 0.164 -20° 16' 45.10" 1.000E-01 0.500 F -0.178 -0.360 21.2 V 0.70 0.18 o 691 0.80 Yes Yes
2002RB O C 2015-07-10.35817 1.000E-05 21:04:13.140 1.500E-01 0.500 F 0.082 -0.044 -09° 47' 19.20" 1.000E-01 0.500 F 0.227 -0.215 o 691 0.44 Yes No
2002RB O C 2015-07-10.37704 1.000E-05 21:04:15.590 1.500E-01 0.500 F 0.082 0.094 -09° 47' 35.10" 1.000E-01 0.500 F 0.227 -0.122 o 691 0.31 Yes No
2002RB O C 2015-07-10.39592 1.000E-05 21:04:18.030 1.500E-01 0.500 F 0.082 0.089 -09° 47' 50.90" 1.000E-01 0.500 F 0.227 0.032 o 691 0.19 Yes No
2015MX53 O C m 2015-07-12.19081 1.000E-05 15:11:36.360 1.500E-01 0.500 F 0.248 -0.824 -20° 52' 28.60" 1.000E-01 0.500 F -0.105 -0.067 21.5 V 0.70 0.65 o 691 1.67 Yes Yes
2015MX53 O C m 2015-07-12.19427 1.000E-05 15:11:36.770 1.500E-01 0.500 F 0.248 -0.226 -20° 52' 32.60" 1.000E-01 0.500 F -0.105 -1.452 21.2 V 0.70 0.35 o 691 2.95 Yes Yes
2015MX53 O C m 2015-07-12.19773 1.000E-05 15:11:37.150 1.500E-01 0.500 F 0.248 -0.061 -20° 52' 34.60" 1.000E-01 0.500 F -0.105 -0.846 o 691 1.70 Yes No
2015NJ3 O C m 2015-07-12.20523 1.000E-05 15:25:29.570 1.500E-01 0.500 F 0.177 0.139 +06° 11' 39.70" 1.000E-01 0.500 F 0.166 -0.368 21.5 V 0.70 0.61 o 691 0.79 Yes Yes
2015NJ3 O C m 2015-07-12.20869 1.000E-05 15:25:28.760 1.500E-01 0.500 F 0.177 -0.752 +06° 11' 39.10" 1.000E-01 0.500 F 0.166 0.360 21.3 V 0.70 0.41 o 691 1.68 Yes Yes
2015NJ3 O C m 2015-07-12.21215 1.000E-05 15:25:28.040 1.500E-01 0.500 F 0.177 -0.304 +06° 11' 37.30" 1.000E-01 0.500 F 0.166 -0.111 21.3 V 0.70 0.41 o 691 0.65 Yes Yes
2015LK21 O C 2015-07-12.29482 1.000E-05 15:57:52.030 1.500E-01 0.500 F 0.202 -0.557 +15° 24' 41.30" 1.000E-01 0.500 F 0.313 -0.061 21.8 V 0.70 0.07 o 691 1.12 Yes Yes
2015LK21 O C 2015-07-12.29990 1.000E-05 15:57:51.880 1.500E-01 0.500 F 0.202 0.011 +15° 24' 38.70" 1.000E-01 0.500 F 0.313 -0.109 21.6 V 0.70 -0.13 o 691 0.22 Yes Yes
2015LK21 O C 2015-07-12.30521 1.000E-05 15:57:51.640 1.500E-01 0.500 F 0.202 -0.604 +15° 24' 36.40" 1.000E-01 0.500 F 0.313 0.259 21.6 V 0.70 -0.13 o 691 1.32 Yes Yes
2008AU26 O C H 2015-07-12.34411 1.000E-05 21:42:53.630 1.500E-01 0.500 F -0.094 0.196 -13° 34' 50.60" 1.000E-01 0.500 F 0.133 0.135 21.6 V 0.70 0.21 o 691 0.48 Yes Yes
2008AU26 O C H 2015-07-12.35128 1.000E-05 21:42:53.390 1.500E-01 0.500 F -0.094 0.465 -13° 34' 50.40" 1.000E-01 0.500 F 0.133 -0.480 o 691 1.34 Yes No
2008AU26 O C H 2015-07-12.35845 1.000E-05 21:42:53.130 1.500E-01 0.500 F -0.094 0.456 -13° 34' 49.30" 1.000E-01 0.500 F 0.133 -0.201 o 691 1.00 Yes No
2000TG2 O C 2015-07-12.39026 1.000E-05 21:46:43.150 1.500E-01 0.500 F -0.030 -0.111 +16° 55' 16.70" 1.000E-01 0.500 F 0.332 -0.106 21.1 V 0.70 -0.12 o 691 0.31 Yes Yes
2000TG2 O C 2015-07-12.39431 1.000E-05 21:46:43.180 1.500E-01 0.500 F -0.030 0.010 +16° 55' 21.00" 1.000E-01 0.500 F 0.332 -0.107 21.0 V 0.70 -0.22 o 691 0.22 Yes Yes
2000TG2 O C 2015-07-12.39861 1.000E-05 21:46:43.190 1.500E-01 0.500 F -0.030 -0.173 +16° 55' 25.50" 1.000E-01 0.500 F 0.332 -0.171 21.0 V 0.70 -0.22 o 691 0.49 Yes Yes
2013PE26 O C m 2015-07-12.40345 1.000E-05 22:32:38.710 1.500E-01 0.500 F -0.002 0.187 -05° 45' 19.10" 1.000E-01 0.500 F 0.107 -0.689 o 691 1.43 Yes No
2013PE26 O C m 2015-07-12.40802 1.000E-05 22:32:38.290 1.500E-01 0.500 F -0.002 0.107 -05° 45' 16.90" 1.000E-01 0.500 F 0.107 -0.230 o 691 0.51 Yes No
2013PE26 O C m 2015-07-12.41283 1.000E-05 22:32:37.850 1.500E-01 0.500 F -0.002 0.055 -05° 45' 15.20" 1.000E-01 0.500 F 0.107 -0.363 o 691 0.74 Yes No
2015NP13 O C 2015-07-12.41753 1.000E-05 22:55:36.700 1.500E-01 0.500 F -0.175 -0.407 -12° 40' 23.50" 1.000E-01 0.500 F 0.261 0.015 20.6 V 0.70 -0.14 o 691 0.83 Yes Yes
2015NP13 O C 2015-07-12.42193 1.000E-05 22:55:37.600 1.500E-01 0.500 F -0.175 -0.131 -12° 40' 19.40" 1.000E-01 0.500 F 0.261 -0.078 20.7 V 0.70 -0.04 o 691 0.31 Yes Yes
2015NP13 O C 2015-07-12.42654 1.000E-05 22:55:38.510 1.500E-01 0.500 F -0.175 -0.319 -12° 40' 14.50" 1.000E-01 0.500 F 0.261 0.425 20.6 V 0.70 -0.14 o 691 1.07 Yes Yes
2015CZ13 O C 2015-07-12.44865 1.000E-05 00:34:32.150 1.500E-01 0.500 F -0.169 -0.742 +12° 18' 44.70" 1.000E-01 0.500 F 0.212 -0.280 20.3 V 0.70 0.27 o 691 1.60 Yes Yes
2002LE27 O C 2015-07-12.44865 1.000E-05 00:34:48.580 1.500E-01 0.500 F -0.243 -0.130 +11° 39' 48.10" 1.000E-01 0.500 F 0.192 0.257 20.5 V 0.70 0.16 o 691 0.58 Yes Yes
2015CZ13 O C 2015-07-12.45119 1.000E-05 00:34:32.020 1.500E-01 0.500 F -0.169 -0.213 +12° 18' 39.10" 1.000E-01 0.500 F 0.212 -0.183 20.3 V 0.70 0.27 o 691 0.57 Yes Yes
2002LE27 O C 2015-07-12.45119 1.000E-05 00:34:49.050 1.500E-01 0.500 F -0.243 -0.134 +11° 39' 51.10" 1.000E-01 0.500 F 0.192 0.041 20.5 V 0.70 0.16 o 691 0.28 Yes Yes
2015CZ13 O C 2015-07-12.45372 1.000E-05 00:34:31.840 1.500E-01 0.500 F -0.169 -0.425 +12° 18' 33.40" 1.000E-01 0.500 F 0.212 -0.207 20.2 V 0.70 0.17 o 691 0.95 Yes Yes
2002LE27 O C 2015-07-12.45372 1.000E-05 00:34:49.500 1.500E-01 0.500 F -0.243 -0.402 +11° 39' 54.50" 1.000E-01 0.500 F 0.192 0.238 20.3 V 0.70 -0.04 o 691 0.95 Yes Yes
2013QK48 O C 2015-07-12.45735 1.000E-05 01:00:46.930 1.500E-01 0.500 F -0.169 -0.360 +00° 40' 59.50" 1.000E-01 0.500 F 0.233 -0.082 20.6 V 0.70 -0.44 o 691 0.78 Yes Yes
2013QK48 O C 2015-07-12.46176 1.000E-05 01:00:46.800 1.500E-01 0.500 F -0.169 -0.298 +00° 40' 55.50" 1.000E-01 0.500 F 0.233 0.098 20.6 V 0.70 -0.44 o 691 0.65 Yes Yes
2013QK48 O C 2015-07-12.46638 1.000E-05 01:00:46.670 1.500E-01 0.500 F -0.169 -0.136 +00° 40' 50.90" 1.000E-01 0.500 F 0.233 -0.123 20.5 V 0.70 -0.54 o 691 0.40 Yes Yes
2015CV13 O C H 2015-07-26.17267 1.000E-05 13:44:40.500 1.500E-01 0.500 F 0.311 0.035 +06° 49' 28.80" 1.000E-01 0.500 F 0.199 -0.329 o 691 0.69 Yes No
2015CV13 O C H 2015-07-26.17532 1.000E-05 13:44:41.410 1.500E-01 0.500 F 0.311 0.238 +06° 49' 08.30" 1.000E-01 0.500 F 0.199 -0.148 o 691 0.60 Yes No
2015CV13 O C H 2015-07-26.17820 1.000E-05 13:44:42.380 1.500E-01 0.500 F 0.311 0.161 +06° 48' 45.60" 1.000E-01 0.500 F 0.199 -0.368 o 691 0.84 Yes No
2015NK13 O C m 2015-07-26.38179 1.000E-05 21:48:11.700 1.500E-01 0.500 F -0.012 0.350 +13° 16' 57.00" 1.000E-01 0.500 F 0.189 -0.561 o 691 1.32 Yes No
2015NK13 O C m 2015-07-26.38478 1.000E-05 21:48:11.880 1.500E-01 0.500 F -0.012 0.296 +13° 17' 02.10" 1.000E-01 0.500 F 0.189 -0.073 21.1 V 0.70 0.33 o 691 0.61 Yes Yes
2015NK13 O C m 2015-07-26.38801 1.000E-05 21:48:12.090 1.500E-01 0.500 F -0.012 0.465 +13° 17' 06.90" 1.000E-01 0.500 F 0.189 -0.253 o 691 1.06 Yes No
2015OA26 O C 2015-07-26.39157 1.000E-05 21:56:13.600 1.500E-01 0.500 F -0.036 -0.229 -05° 48' 12.00" 1.000E-01 0.500 F 0.292 -0.104 19.5 V 0.70 0.32 o 691 0.52 Yes Yes
2015OA26 O C 2015-07-26.39458 1.000E-05 21:56:12.820 1.500E-01 0.500 F -0.036 -0.145 -05° 48' 15.70" 1.000E-01 0.500 F 0.292 0.246 19.1 V 0.70 -0.08 o 691 0.58 Yes Yes
2015OA26 O C 2015-07-26.39757 1.000E-05 21:56:12.040 1.500E-01 0.500 F -0.036 -0.151 -05° 48' 19.80" 1.000E-01 0.500 F 0.292 0.161 18.9 V 0.70 -0.28 o 691 0.45 Yes Yes
2008GX O C 2015-08-13.38045 1.000E-05 22:03:47.080 1.500E-01 0.500 F -0.203 -0.137 -11° 41' 52.20" 1.000E-01 0.500 F 0.253 -0.186 o 691 0.46 Yes No
2008GX O C 2015-08-13.39926 1.000E-05 22:03:45.940 1.500E-01 0.500 F -0.203 0.068 -11° 42' 03.50" 1.000E-01 0.500 F 0.253 0.032 o 691 0.15 Yes No
2008GX O C 2015-08-13.41808 1.000E-05 22:03:44.840 1.500E-01 0.500 F -0.203 0.787 -11° 42' 13.50" 1.000E-01 0.500 F 0.253 1.512 o 691 3.39 No No
2012NP O C 2015-08-18.19633 1.000E-05 20:48:49.960 1.500E-01 0.500 F -0.200 -0.264 -09° 30' 03.40" 1.000E-01 0.500 F 0.381 0.011 17.6 V 0.70 0.14 o 691 0.54 Yes Yes
2012NP O C 2015-08-18.22220 1.000E-05 20:49:01.350 1.500E-01 0.500 F -0.200 -0.192 -09° 31' 35.70" 1.000E-01 0.500 F 0.381 -0.024 17.6 V 0.70 0.14 o 691 0.40 Yes Yes
2012NP O C 2015-08-18.24808 1.000E-05 20:49:12.710 1.500E-01 0.500 F -0.151 -0.059 -09° 33' 07.70" 1.000E-01 0.500 F 0.364 -0.069 17.7 V 0.70 0.24 o 691 0.19 Yes Yes
2015MX53 O C 2015-08-18.26639 1.000E-05 23:02:17.580 1.500E-01 0.500 F -0.053 -0.449 -09° 33' 05.50" 1.000E-01 0.500 F 0.355 0.107 19.1 V 0.70 0.47 o 691 0.93 Yes Yes
2001SX169 O C 2015-08-18.26873 1.000E-05 23:07:51.930 1.500E-01 0.500 F -0.217 -0.412 -08° 10' 37.00" 1.000E-01 0.500 F 0.294 0.054 20.7 V 0.70 0.34 o 691 0.83 Yes Yes
Cleobulus O C H 2015-08-18.28521 1.000E-05 23:04:37.950 1.500E-01 0.500 F -0.123 -0.250 -09° 27' 12.90" 1.000E-01 0.500 F 0.365 0.289 21.2 V 0.70 0.37 o 691 0.77 Yes Yes
2015MX53 O C 2015-08-18.28521 1.000E-05 23:02:26.220 1.500E-01 0.500 F -0.053 -0.524 -09° 31' 52.10" 1.000E-01 0.500 F 0.355 -0.401 18.8 V 0.70 0.17 o 691 1.34 Yes Yes
2001SX169 O C 2015-08-18.28756 1.000E-05 23:07:50.040 1.500E-01 0.500 F -0.217 -0.361 -08° 10' 51.30" 1.000E-01 0.500 F 0.294 -0.495 20.4 V 0.70 0.04 o 691 1.23 Yes Yes
Cleobulus O C H 2015-08-18.30402 1.000E-05 23:04:37.100 1.500E-01 0.500 F -0.123 0.214 -09° 27' 18.70" 1.000E-01 0.500 F 0.365 0.199 21.3 V 0.70 0.47 o 691 0.58 Yes Yes
2015MX53 O C 2015-08-18.30402 1.000E-05 23:02:34.800 1.500E-01 0.500 F -0.053 -0.404 -09° 30' 37.80" 1.000E-01 0.500 F 0.355 -0.069 19.2 V 0.70 0.56 o 691 0.83 Yes Yes
2001SX169 O C 2015-08-18.30637 1.000E-05 23:07:48.160 1.500E-01 0.500 F -0.217 -0.128 -08° 11' 04.50" 1.000E-01 0.500 F 0.294 0.030 20.4 V 0.70 0.04 o 691 0.26 Yes Yes
1993VA O C 2015-08-18.33403 1.000E-05 22:27:51.790 1.500E-01 0.500 F -0.194 -0.098 -14° 48' 41.70" 1.000E-01 0.500 F 0.156 0.032 17.9 V 0.70 0.06 o 691 0.21 Yes Yes
2008JV19 O C 2015-08-18.34108 1.000E-05 22:48:03.690 1.500E-01 0.500 F -0.104 -0.148 -14° 53' 06.10" 1.000E-01 0.500 F 0.287 -0.058 16.4 V 0.70 0.30 o 691 0.32 Yes Yes
1993VA O C 2015-08-18.35284 1.000E-05 22:27:49.840 1.500E-01 0.500 F -0.194 -0.160 -14° 49' 02.90" 1.000E-01 0.500 F 0.156 0.151 18.0 V 0.70 0.16 o 691 0.44 Yes Yes
2008JV19 O C 2015-08-18.35989 1.000E-05 22:48:02.470 1.500E-01 0.500 F -0.104 -0.239 -14° 55' 17.60" 1.000E-01 0.500 F 0.287 -0.092 16.5 V 0.70 0.41 o 691 0.52 Yes Yes
1993VA O C 2015-08-18.37167 1.000E-05 22:27:47.900 1.500E-01 0.500 F -0.194 -0.046 -14° 49' 24.20" 1.000E-01 0.500 F 0.156 0.156 18.0 V 0.70 0.16 o 691 0.33 Yes Yes
2008JV19 O C 2015-08-18.37871 1.000E-05 22:48:01.240 1.500E-01 0.500 F -0.104 -0.467 -14° 57' 28.20" 1.000E-01 0.500 F 0.287 0.730 16.4 V 0.70 0.31 o 691 1.76 Yes Yes
2008GX O C 2015-08-18.38456 1.000E-05 21:59:16.750 1.500E-01 0.500 F -0.205 -0.279 -12° 31' 23.70" 1.000E-01 0.500 F 0.221 -0.132 19.4 V 0.70 0.19 o 691 0.62 Yes Yes
2008GX O C 2015-08-18.40337 1.000E-05 21:59:15.650 1.500E-01 0.500 F -0.205 -0.449 -12° 31' 34.00" 1.000E-01 0.500 F 0.221 0.036 19.4 V 0.70 0.19 o 691 0.91 Yes Yes
2008GX O C 2015-08-18.42219 1.000E-05 21:59:14.600 1.500E-01 0.500 F -0.205 0.014 -12° 31' 44.50" 1.000E-01 0.500 F 0.221 -0.033 19.6 V 0.70 0.39 o 691 0.07 Yes Yes
2005AT42 O C 2015-08-19.33895 1.000E-05 22:16:59.380 1.500E-01 0.500 F -0.139 -0.289 -08° 19' 34.70" 1.000E-01 0.500 F 0.330 -0.301 19.7 V 0.70 -0.18 o 691 0.84 Yes Yes
2002PQ142 O C 2015-08-19.34836 1.000E-05 22:19:24.720 1.500E-01 0.500 F -0.210 -0.073 -09° 39' 03.20" 1.000E-01 0.500 F 0.220 0.049 20.4 V 0.70 0.03 o 691 0.18 Yes Yes
2005AT42 O C 2015-08-19.35776 1.000E-05 22:16:58.140 1.500E-01 0.500 F -0.139 -0.292 -08° 19' 45.70" 1.000E-01 0.500 F 0.330 0.106 19.7 V 0.70 -0.18 o 691 0.62 Yes Yes
2002PQ142 O C 2015-08-19.36717 1.000E-05 22:19:22.870 1.500E-01 0.500 F -0.210 -0.701 -09° 39' 19.80" 1.000E-01 0.500 F 0.220 -0.396 20.6 V 0.70 0.23 o 691 1.61 Yes Yes
2005AT42 O C 2015-08-19.37659 1.000E-05 22:16:56.940 1.500E-01 0.500 F -0.139 0.307 -08° 19' 57.30" 1.000E-01 0.500 F 0.330 -0.086 19.9 V 0.70 0.02 o 691 0.64 Yes Yes
2002PQ142 O C 2015-08-19.38601 1.000E-05 22:19:21.070 1.500E-01 0.500 F -0.210 -0.558 -09° 39' 35.90" 1.000E-01 0.500 F 0.220 -0.324 20.4 V 0.70 0.03 o 691 1.29 Yes Yes
1998YO4 O C H 2015-08-19.40408 1.000E-05 04:11:45.000 1.500E-01 0.500 F -0.159 -0.332 +22° 23' 55.30" 1.000E-01 0.500 F 0.243 -0.806 o 691 1.74 Yes No
1998YO4 O C H 2015-08-19.41817 1.000E-05 04:11:46.190 1.500E-01 0.500 F -0.159 0.452 +22° 24' 01.50" 1.000E-01 0.500 F 0.243 -0.585 o 691 1.48 Yes No
1998YO4 O C H 2015-08-19.43228 1.000E-05 04:11:47.280 1.500E-01 0.500 F -0.159 -0.145 +22° 24' 07.80" 1.000E-01 0.500 F 0.243 -0.267 o 691 0.61 Yes No
2012PO28 O C H 2015-08-20.19593 1.000E-05 20:47:34.860 1.500E-01 0.500 F -0.174 0.497 -09° 24' 30.10" 1.000E-01 0.500 F 0.388 -0.482 o 691 1.40 Yes No
2012PO28 O C H 2015-08-20.22186 1.000E-05 20:47:36.110 1.500E-01 0.500 F -0.174 0.087 -09° 24' 46.00" 1.000E-01 0.500 F 0.388 -0.009 o 691 0.18 Yes No
2012PO28 O C H 2015-08-20.24781 1.000E-05 20:47:37.380 1.500E-01 0.500 F -0.174 0.113 -09° 25' 02.80" 1.000E-01 0.500 F 0.388 -0.524 o 691 1.08 Yes No
2015MX53 O C 2015-08-20.28244 1.000E-05 23:17:18.880 1.500E-01 0.500 F -0.193 -0.228 -07° 30' 58.40" 1.000E-01 0.500 F 0.260 0.040 19.5 V 0.70 0.58 o 691 0.47 Yes Yes
2015MX53 O C 2015-08-20.30128 1.000E-05 23:17:25.710 1.500E-01 0.500 F -0.193 0.346 -07° 29' 56.90" 1.000E-01 0.500 F 0.260 0.196 19.5 V 0.70 0.57 o 691 0.81 Yes Yes
2015MX53 O C 2015-08-20.32015 1.000E-05 23:17:32.430 1.500E-01 0.500 F -0.193 -0.080 -07° 28' 55.80" 1.000E-01 0.500 F 0.260 -0.204 19.3 V 0.70 0.37 o 691 0.44 Yes Yes
2006SJ198 O C 2015-08-20.32616 1.000E-05 22:27:44.380 1.500E-01 0.500 F 0.044 -0.608 -05° 48' 57.70" 1.000E-01 0.500 F 0.148 -0.077 21.7 V 0.70 0.16 o 691 1.24 Yes Yes
2006SJ198 O C 2015-08-20.34502 1.000E-05 22:27:43.130 1.500E-01 0.500 F 0.044 -0.396 -05° 49' 04.10" 1.000E-01 0.500 F 0.148 -0.145 21.5 V 0.70 -0.04 o 691 0.86 Yes Yes
2006SJ198 O C 2015-08-20.36388 1.000E-05 22:27:41.910 1.500E-01 0.500 F 0.044 0.264 -05° 49' 10.30" 1.000E-01 0.500 F 0.148 -0.017 21.6 V 0.70 0.06 o 691 0.52 Yes Yes
2006WO127 O C H 2015-08-20.39776 1.000E-05 22:02:44.840 1.500E-01 0.500 F -0.117 0.098 -06° 19' 32.60" 1.000E-01 0.500 F 0.300 -0.212 20.7 V 0.70 0.30 o 691 0.47 Yes Yes
2006WO127 O C H 2015-08-20.41659 1.000E-05 22:02:43.670 1.500E-01 0.500 F -0.117 0.435 -06° 19' 42.00" 1.000E-01 0.500 F 0.300 -0.869 o 691 1.95 Yes No
2006WO127 O C H 2015-08-20.43545 1.000E-05 22:02:42.460 1.500E-01 0.500 F -0.117 0.175 -06° 19' 49.90" 1.000E-01 0.500 F 0.300 -0.016 20.9 V 0.70 0.50 o 691 0.36 Yes Yes
2004OB O C 2015-08-20.45762 1.000E-05 04:07:06.430 1.500E-01 0.500 F -0.250 -0.137 +21° 19' 21.00" 1.000E-01 0.500 F 0.124 -0.370 20.0 V 0.70 0.24 o 691 0.79 Yes Yes
2004OB O C 2015-08-20.47176 1.000E-05 04:07:11.950 1.500E-01 0.500 F -0.250 -0.522 +21° 19' 29.00" 1.000E-01 0.500 F 0.124 -0.068 20.4 V 0.70 0.64 o 691 1.06 Yes Yes
2004OB O C 2015-08-20.48587 1.000E-05 04:07:17.550 1.500E-01 0.500 F -0.250 0.451 +21° 19' 36.50" 1.000E-01 0.500 F 0.124 -0.198 20.2 V 0.70 0.44 o 691 0.99 Yes Yes
2015QT3 O C 2015-08-21.27117 1.000E-05 23:12:09.320 1.500E-01 0.500 F -0.162 0.109 -01° 03' 23.40" 1.000E-01 0.500 F 0.306 0.049 20.8 V 0.70 0.55 o 691 0.25 Yes Yes
2015PR O C 2015-08-21.28057 1.000E-05 23:06:43.290 1.500E-01 0.500 F -0.142 -0.255 -03° 40' 08.80" 1.000E-01 0.500 F 0.249 -0.091 19.4 V 0.70 0.09 o 691 0.54 Yes Yes
2015QT3 O C 2015-08-21.28998 1.000E-05 23:12:12.660 1.500E-01 0.500 F -0.162 -0.520 -01° 03' 10.40" 1.000E-01 0.500 F 0.306 0.099 20.6 V 0.70 0.36 o 691 1.09 Yes Yes
2015PR O C 2015-08-21.29940 1.000E-05 23:06:44.540 1.500E-01 0.500 F -0.142 -0.182 -03° 40' 17.80" 1.000E-01 0.500 F 0.249 0.029 19.4 V 0.70 0.09 o 691 0.37 Yes Yes
2015QT3 O C 2015-08-21.30881 1.000E-05 23:12:16.030 1.500E-01 0.500 F -0.162 -0.575 -01° 02' 57.50" 1.000E-01 0.500 F 0.306 -0.043 20.3 V 0.70 0.06 o 691 1.18 Yes Yes
2015PR O C 2015-08-21.31821 1.000E-05 23:06:45.760 1.500E-01 0.500 F -0.142 -0.422 -03° 40' 26.70" 1.000E-01 0.500 F 0.249 0.231 19.2 V 0.70 -0.11 o 691 0.97 Yes Yes
2015PR O C 2015-09-04.38645 1.000E-05 23:24:18.040 1.500E-01 0.500 F -0.245 -0.060 -06° 11' 36.90" 1.000E-01 0.500 F 0.203 -0.141 o 691 0.31 Yes No
2015PR O C 2015-09-04.40525 1.000E-05 23:24:19.280 1.500E-01 0.500 F -0.245 0.157 -06° 11' 51.40" 1.000E-01 0.500 F 0.203 -0.107 o 691 0.38 Yes No
2015PR O C 2015-09-04.42405 1.000E-05 23:24:20.510 1.500E-01 0.500 F -0.245 0.066 -06° 12' 06.00" 1.000E-01 0.500 F 0.203 -0.204 o 691 0.43 Yes No
2015PQ O C 2015-09-04.46399 1.000E-05 23:52:13.600 1.500E-01 0.500 F -0.155 -0.739 +12° 48' 44.30" 1.000E-01 0.500 F 0.195 0.310 o 691 1.63 Yes No
2015PQ O C 2015-09-04.46578 1.000E-05 23:52:13.870 1.500E-01 0.500 F -0.155 -0.368 +12° 48' 51.00" 1.000E-01 0.500 F 0.195 -0.288 o 691 0.96 Yes No
2015PQ O C 2015-09-04.46757 1.000E-05 23:52:14.130 1.500E-01 0.500 F -0.155 -0.148 +12° 48' 58.40" 1.000E-01 0.500 F 0.195 -0.184 o 691 0.49 Yes No
2015PC O C 2015-09-04.47356 1.000E-05 23:02:58.550 1.500E-01 0.500 F -0.130 -0.008 +19° 21' 40.20" 1.000E-01 0.500 F 0.229 -0.035 o 691 0.07 Yes No
2015PC O C 2015-09-04.47559 1.000E-05 23:02:58.200 1.500E-01 0.500 F -0.130 -0.185 +19° 21' 35.90" 1.000E-01 0.500 F 0.229 0.019 o 691 0.38 Yes No
2015PC O C 2015-09-04.47761 1.000E-05 23:02:57.860 1.500E-01 0.500 F -0.130 -0.247 +19° 21' 31.60" 1.000E-01 0.500 F 0.229 0.052 o 691 0.51 Yes No
2015QJ3 O C H 2015-09-04.48022 1.000E-05 23:13:55.210 1.500E-01 0.500 F -0.177 -0.231 +17° 35' 17.30" 1.000E-01 0.500 F 0.312 0.168 19.6 V 0.70 0.29 o 691 0.60 Yes Yes
2015QJ3 O C H 2015-09-04.48178 1.000E-05 23:13:54.720 1.500E-01 0.500 F -0.177 0.450 +17° 35' 27.70" 1.000E-01 0.500 F 0.312 -0.185 19.5 V 0.70 0.19 o 691 1.02 Yes Yes
2015QJ3 O C H 2015-09-04.48334 1.000E-05 23:13:54.180 1.500E-01 0.500 F -0.177 0.413 +17° 35' 39.00" 1.000E-01 0.500 F 0.312 0.362 19.4 V 0.70 0.09 o 691 1.15 Yes Yes
2015LC21 O C 2015-09-06.21156 1.000E-05 00:21:36.010 1.500E-01 0.500 F -0.135 -0.055 +08° 56' 33.80" 1.000E-01 0.500 F 0.312 -0.112 21.2 V 0.70 0.57 o 691 0.26 Yes Yes
2015LC21 O C 2015-09-06.23034 1.000E-05 00:21:35.320 1.500E-01 0.500 F -0.135 -0.784 +08° 56' 45.70" 1.000E-01 0.500 F 0.312 -0.033 21.0 V 0.70 0.37 o 691 1.63 Yes Yes
2015LC21 O C 2015-09-06.24914 1.000E-05 00:21:34.690 1.500E-01 0.500 F -0.135 -0.122 +08° 56' 57.50" 1.000E-01 0.500 F 0.312 0.021 21.1 V 0.70 0.47 o 691 0.26 Yes Yes
2015QB O C 2015-09-06.27713 1.000E-05 00:09:51.890 1.500E-01 0.500 F -0.230 -0.043 -01° 45' 03.10" 1.000E-01 0.500 F 0.173 0.034 20.6 V 0.70 -0.09 o 691 0.12 Yes Yes
2015QB O C 2015-09-06.29591 1.000E-05 00:09:52.550 1.500E-01 0.500 F -0.230 -0.266 -01° 45' 04.10" 1.000E-01 0.500 F 0.173 0.214 20.6 V 0.70 -0.09 o 691 0.77 Yes Yes
2015QB O C 2015-09-06.31471 1.000E-05 00:09:53.210 1.500E-01 0.500 F -0.230 -0.142 -01° 45' 05.50" 1.000E-01 0.500 F 0.173 -0.025 20.7 V 0.70 0.00 o 691 0.32 Yes Yes
2001SN263 O C 2015-09-06.33530 1.000E-05 23:32:22.530 1.500E-01 0.500 F -0.095 -0.538 +01° 53' 19.70" 1.000E-01 0.500 F 0.296 0.025 20.2 V 0.70 -0.19 o 691 1.07 Yes Yes
2011YA O C 2015-09-06.34704 1.000E-05 23:38:48.610 1.500E-01 0.500 F -0.166 -0.216 -00° 44' 07.30" 1.000E-01 0.500 F 0.299 0.056 20.9 V 0.70 -0.39 o 691 0.45 Yes Yes

[1-200] [201-400] [401-600] [601-800] [801-1000] [1001-1200] [1201-1400] [1401-1600] [1601-1800] [1801-2000] [2001-2200] [2201-2400] [2401-2600] [2601-2800] [2801-3000] [3001-3200] [3201-3400] [3401-3600] [3601-3800] [3801-4000] [4001-4200] [4201-4400] [4401-4600] [4601-4800] [4801-5000] [5001-5200] [5201-5400] [5401-5600] [5601-5800] [5801-6000] [6001-6200] [6201-6400] [6401-6600] [6601-6800] [6801-7000] [7001-7200] [7201-7400] [7401-7600] [7601-7800] [7801-8000] [8001-8200] [8201-8400] [8401-8600] [8601-8800] [8801-9000] [9001-9200] [9201-9400] [9401-9600] [9601-9800] [9801-10000] [10001-10200] [10201-10400] [10401-10600] [10601-10800] [10801-11000] [11001-11200] [11201-11400] [11401-11600] [11601-11800] [11801-12000] [12001-12200] [12201-12400] [12401-12600] [12601-12800] [12801-13000] [13001-13200] [13201-13400] [13401-13600] [13601-13800] [13801-14000] [14001-14200] [14201-14400] [14401-14600] [14601-14800] [14801-15000] [15001-15200] [15201-15400] [15401-15600] [15601-15800] [15801-16000] [16001-16200] [16201-16400] [16401-16600] [16601-16800] [16801-17000] [17001-17200] [17201-17400] [17401-17600] [17601-17800] [17801-18000] [18001-18200] [18201-18400] [18401-18600] [18601-18800] [18801-19000] [19001-19200] [19201-19400] [19401-19600] [19601-19800] [19801-20000] [20001-20200] [20201-20400] [20401-20600] [20601-20800] [20801-21000] [21001-21200] [21201-21400] [21401-21600] [21601-21800] [21801-22000] [22001-22200] [22201-22400] [22401-22600] [22601-22800] [22801-23000] [23001-23200] [23201-23400] [23401-23600] [23601-23800] [23801-24000] [24001-24200] [24201-24400] [24401-24600] [24601-24800] [24801-25000] [25001-25200] [25201-25400] [25401-25600] [25601-25800] [25801-26000] [26001-26200] [26201-26400] [26401-26600] [26601-26800] [26801-27000] [27001-27200] [27201-27400] [27401-27600] [27601-27800] [27801-28000] [28001-28200] [28201-28400] [28401-28600] [28601-28800] [28801-29000] [29001-29200] [29201-29400] [29401-29600] [29601-29800] [29801-30000] [30001-30200] [30201-30400] [30401-30600] [30601-30800] [30801-31000] [31001-31200] [31201-31400] [31401-31600] [31601-31800] [31801-32000] [32001-32200] [32201-32400] [32401-32600] [32601-32800] [32801-33000] [33001-33200] [33201-33400] [33401-33600] [33601-33800] [33801-34000] [34001-34200] [34201-34400] [34401-34600] [34601-34800] [34801-35000] [35001-35200] [35201-35400] [35401-35600] [35601-35800] [35801-36000] [36001-36200] [36201-36400] [36401-36600] [36601-36800] [36801-37000] [37001-37200] [37201-37400] [37401-37600] [37601-37800] [37801-38000] [38001-38200] [38201-38400] [38401-38600] [38601-38800] [38801-39000] [39001-39200] [39201-39400] [39401-39600] [39601-39800] [39801-40000] [40001-40200] [40201-40400] [40401-40600] [40601-40800] [40801-41000] [41001-41200] [41201-41400] [41401-41600] [41601-41800] [41801-42000] [42001-42200] [42201-42400] [42401-42600] [42601-42800] [42801-43000] [43001-43200] [43201-43400] [43401-43600] [43601-43800] [43801-44000] [44001-44200] [44201-44400] [44401-44600] [44601-44800] [44801-45000] [45001-45200] [45201-45400] [45401-45600] [45601-45800] [45801-46000] [46001-46200] [46201-46400] [46401-46600] [46601-46800] [46801-47000] [47001-47200] [47201-47400] [47401-47600] [47601-47800] [47801-48000] [48001-48200] [48201-48400] [48401-48600] [48601-48800] [48801-49000] [49001-49200] [49201-49400] [49401-49600] [49601-49800] [49801-50000] [50001-50200] [50201-50388]